createdAt,value
2018-04-28T00:01:05.765Z,54.92
2018-04-28T00:03:34.035Z,55.04
2018-04-28T00:06:03.055Z,54.86
2018-04-28T00:08:33.018Z,54.59
2018-04-28T00:11:01.277Z,54.31
2018-04-28T00:13:30.735Z,54.03
2018-04-28T00:16:04.258Z,54.09
2018-04-28T00:18:32.508Z,53.59
2018-04-28T00:21:01.541Z,53.62
2018-04-28T00:23:29.812Z,53.69
2018-04-28T00:25:58.637Z,53.80
2018-04-28T00:28:54.204Z,53.98
2018-04-28T00:31:28.962Z,54.37
2018-04-28T00:33:57.226Z,54.27
2018-04-28T00:39:25.534Z,54.40
2018-04-28T00:41:53.763Z,54.39
2018-04-28T00:44:22.848Z,54.42
2018-04-28T00:46:59.172Z,54.50
2018-04-28T00:49:28.742Z,54.66
2018-04-28T00:51:57.572Z,54.88
2018-04-28T00:57:44.436Z,55.20
2018-04-28T01:03:19.018Z,55.64
2018-04-28T01:05:49.689Z,55.92
2018-04-28T01:08:23.868Z,56.24
2018-04-28T01:10:52.126Z,56.59
2018-04-28T01:13:20.385Z,56.89
2018-04-28T01:15:48.645Z,57.27
2018-04-28T01:18:24.407Z,57.07
2018-04-28T01:21:02.599Z,57.59
2018-04-28T01:23:39.578Z,58.00
2018-04-28T01:29:29.689Z,58.42
2018-04-28T01:32:14.215Z,57.97
2018-04-28T01:34:43.167Z,57.81
2018-04-28T01:37:26.029Z,58.11
2018-04-28T01:39:56.049Z,58.14
2018-04-28T01:46:05.944Z,57.56
2018-04-28T01:48:41.673Z,57.48
2018-04-28T01:51:16.163Z,57.87
2018-04-28T02:00:32.302Z,58.01
2018-04-28T02:03:06.202Z,58.26
2018-04-28T02:05:46.230Z,58.79
2018-04-28T02:08:18.039Z,59.53
2018-04-28T02:10:52.016Z,59.27
2018-04-28T02:16:42.063Z,59.88
2018-04-28T02:19:21.768Z,60.20
2018-04-28T02:25:07.132Z,61.35
2018-04-28T02:31:22.417Z,61.63
2018-04-28T02:33:51.452Z,61.34
2018-04-28T02:36:29.510Z,61.31
2018-04-28T02:38:58.597Z,61.46
2018-04-28T02:41:42.025Z,61.45
2018-04-28T02:47:11.244Z,61.87
2018-04-28T02:49:45.362Z,62.30
2018-04-28T02:55:36.037Z,63.37
2018-04-28T02:58:04.302Z,63.62
2018-04-28T03:00:51.500Z,63.31
2018-04-28T03:03:32.078Z,63.48
2018-04-28T03:06:04.729Z,63.46
2018-04-28T03:08:40.588Z,63.73
2018-04-28T03:11:10.333Z,63.32
2018-04-28T03:13:46.674Z,63.86
2018-04-28T03:19:18.396Z,63.61
2018-04-28T03:21:48.045Z,63.23
2018-04-28T03:24:24.511Z,63.52
2018-04-28T03:26:59.033Z,63.00
2018-04-28T03:29:36.391Z,62.78
2018-04-28T03:32:07.039Z,62.33
2018-04-28T03:34:49.929Z,62.67
2018-04-28T03:37:23.765Z,63.12
2018-04-28T03:43:03.645Z,63.50
2018-04-28T03:45:36.420Z,63.87
2018-04-28T03:48:22.130Z,64.36
2018-04-28T03:50:53.920Z,64.42
2018-04-28T03:53:35.861Z,64.55
2018-04-28T03:56:04.078Z,64.73
2018-04-28T03:58:50.069Z,64.90
2018-04-28T04:04:39.313Z,64.94
2018-04-28T04:10:10.380Z,64.50
2018-04-28T04:16:06.764Z,65.19
2018-04-28T04:18:45.622Z,65.15
2018-04-28T04:21:24.014Z,65.21
2018-04-28T04:27:16.929Z,65.28
2018-04-28T04:32:45.258Z,65.84
2018-04-28T04:35:23.369Z,65.67
2018-04-28T04:37:55.304Z,66.25
2018-04-28T04:44:08.766Z,66.58
2018-04-28T04:46:46.457Z,66.74
2018-04-28T04:49:23.333Z,66.30
2018-04-28T04:54:59.392Z,66.52
2018-04-28T05:01:16.232Z,66.73
2018-04-28T05:04:01.848Z,66.70
2018-04-28T05:06:55.031Z,66.96
2018-04-28T05:12:33.257Z,66.53
2018-04-28T05:15:19.264Z,66.68
2018-04-28T05:21:07.884Z,65.66
2018-04-28T05:27:34.612Z,65.34
2018-04-28T05:30:18.344Z,64.96
2018-04-28T05:32:54.168Z,65.99
2018-04-28T05:35:29.880Z,66.40
2018-04-28T05:41:31.320Z,66.23
2018-04-28T05:47:19.532Z,65.02
2018-04-28T05:56:39.976Z,65.79
2018-04-28T06:02:39.249Z,63.70
2018-04-28T06:05:30.121Z,63.61
2018-04-28T06:11:28.357Z,64.93
2018-04-28T06:14:09.229Z,65.25
2018-04-28T06:20:04.397Z,64.55
2018-04-28T06:22:32.614Z,65.63
2018-04-28T06:25:00.877Z,64.62
2018-04-28T06:27:29.132Z,63.52
2018-04-28T06:29:57.393Z,62.99
2018-04-28T06:32:25.652Z,62.14
2018-04-28T06:34:53.909Z,62.25
2018-04-28T06:37:22.928Z,62.22
2018-04-28T06:39:51.194Z,61.50
2018-04-28T06:42:19.440Z,62.14
2018-04-28T06:44:47.696Z,61.23
2018-04-28T06:47:15.948Z,61.04
2018-04-28T06:49:44.200Z,61.06
2018-04-28T06:52:12.469Z,60.54
2018-04-28T06:54:40.725Z,59.00
2018-04-28T06:57:08.982Z,59.99
2018-04-28T06:59:37.232Z,60.06
2018-04-28T07:02:05.492Z,60.69
2018-04-28T07:04:34.539Z,58.83
2018-04-28T07:07:02.776Z,60.00
2018-04-28T07:09:31.028Z,59.48
2018-04-28T07:12:00.061Z,58.67
2018-04-28T07:14:28.322Z,59.08
2018-04-28T07:16:56.575Z,59.33
2018-04-28T07:19:25.601Z,58.31
2018-04-28T07:21:53.857Z,58.85
2018-04-28T07:24:22.869Z,57.59
2018-04-28T07:26:51.135Z,57.40
2018-04-28T07:29:19.430Z,57.28
2018-04-28T07:31:48.430Z,56.57
2018-04-28T07:34:16.681Z,57.05
2018-04-28T07:36:44.944Z,57.31
2018-04-28T07:39:13.200Z,56.99
2018-04-28T07:41:41.452Z,55.88
2018-04-28T07:44:09.709Z,56.43
2018-04-28T07:46:37.973Z,56.24
2018-04-28T07:49:06.240Z,56.01
2018-04-28T07:51:34.509Z,55.91
2018-04-28T07:54:02.791Z,55.52
2018-04-28T07:56:31.013Z,54.61
2018-04-28T07:58:59.286Z,54.71
2018-04-28T08:01:27.537Z,55.49
2018-04-28T08:03:55.796Z,56.03
2018-04-28T08:06:24.047Z,55.77
2018-04-28T08:08:53.073Z,55.59
2018-04-28T08:11:21.317Z,55.46
2018-04-28T08:13:50.346Z,56.00
2018-04-28T08:16:18.592Z,56.16
2018-04-28T08:18:47.626Z,55.08
2018-04-28T08:21:15.873Z,55.11
2018-04-28T08:23:44.138Z,54.67
2018-04-28T08:26:13.151Z,55.14
2018-04-28T08:28:41.405Z,54.97
2018-04-28T08:31:09.669Z,54.44
2018-04-28T08:33:38.694Z,54.42
2018-04-28T08:36:06.948Z,55.05
2018-04-28T08:38:35.204Z,54.43
2018-04-28T08:41:03.461Z,53.91
2018-04-28T08:43:31.729Z,54.09
2018-04-28T08:45:59.988Z,54.16
2018-04-28T08:48:28.238Z,53.38
2018-04-28T08:50:56.559Z,53.44
2018-04-28T08:53:25.509Z,51.00
2018-04-28T08:55:53.771Z,52.49
2018-04-28T08:58:22.785Z,51.92
2018-04-28T09:00:59.529Z,51.60
2018-04-28T09:03:28.551Z,51.68
2018-04-28T09:05:56.805Z,50.74
2018-04-28T09:08:25.826Z,51.92
2018-04-28T09:10:54.091Z,52.17
2018-04-28T09:13:22.350Z,50.59
2018-04-28T09:15:51.370Z,49.82
2018-04-28T09:18:19.618Z,50.80
2018-04-28T09:20:48.645Z,49.10
2018-04-28T09:23:16.893Z,49.72
2018-04-28T09:25:45.154Z,49.31
2018-04-28T09:28:14.179Z,48.71
2018-04-28T09:30:42.430Z,49.67
2018-04-28T09:33:11.449Z,49.75
2018-04-28T09:35:39.706Z,49.97
2018-04-28T09:38:08.824Z,49.89
2018-04-28T09:40:37.082Z,50.52
2018-04-28T09:43:05.334Z,49.76
2018-04-28T09:45:34.364Z,49.88
2018-04-28T09:48:02.609Z,50.17
2018-04-28T09:50:31.639Z,49.23
2018-04-28T09:52:59.893Z,51.28
2018-04-28T09:55:28.152Z,51.26
2018-04-28T09:58:06.086Z,50.45
2018-04-28T10:03:41.899Z,49.93
2018-04-28T10:06:10.161Z,49.76
2018-04-28T10:08:38.409Z,48.90
2018-04-28T10:11:06.667Z,50.30
2018-04-28T10:13:35.681Z,50.73
2018-04-28T10:16:03.935Z,49.72
2018-04-28T10:18:32.190Z,50.52
2018-04-28T10:21:00.441Z,48.90
2018-04-28T10:23:29.465Z,49.45
2018-04-28T10:25:58.488Z,49.77
2018-04-28T10:28:26.749Z,50.42
2018-04-28T10:30:55.829Z,50.31
2018-04-28T10:33:24.025Z,49.22
2018-04-28T10:35:52.273Z,48.95
2018-04-28T10:38:20.538Z,49.29
2018-04-28T10:40:48.781Z,50.23
2018-04-28T10:43:17.042Z,49.91
2018-04-28T10:45:45.285Z,49.72
2018-04-28T10:48:14.307Z,49.51
2018-04-28T10:50:42.554Z,51.09
2018-04-28T10:53:10.809Z,50.21
2018-04-28T10:55:39.058Z,49.83
2018-04-28T10:58:07.324Z,51.18
2018-04-28T11:00:35.570Z,50.30
2018-04-28T11:03:03.825Z,49.35
2018-04-28T11:05:32.876Z,48.98
2018-04-28T11:08:01.109Z,49.03
2018-04-28T11:10:30.125Z,48.25
2018-04-28T11:12:58.380Z,50.59
2018-04-28T11:15:26.640Z,50.46
2018-04-28T11:17:54.893Z,47.87
2018-04-28T11:20:23.151Z,49.59
2018-04-28T11:22:51.417Z,49.58
2018-04-28T11:25:19.680Z,50.83
2018-04-28T11:27:47.924Z,51.23
2018-04-28T11:30:16.946Z,51.03
2018-04-28T11:32:45.196Z,51.39
2018-04-28T11:35:13.458Z,51.28
2018-04-28T11:37:41.709Z,52.71
2018-04-28T11:40:09.973Z,52.60
2018-04-28T11:42:38.224Z,51.87
2018-04-28T11:45:06.485Z,52.45
2018-04-28T11:47:34.738Z,51.69
2018-04-28T11:50:03.762Z,51.82
2018-04-28T11:52:32.015Z,52.28
2018-04-28T11:55:00.277Z,51.67
2018-04-28T11:57:28.532Z,52.13
2018-04-28T11:59:56.790Z,51.48
2018-04-28T12:02:25.043Z,51.93
2018-04-28T12:04:53.305Z,52.37
2018-04-28T12:07:21.553Z,51.70
2018-04-28T12:09:50.578Z,52.11
2018-04-28T12:12:18.829Z,52.22
2018-04-28T12:14:47.864Z,52.10
2018-04-28T12:17:16.115Z,51.48
2018-04-28T12:19:44.362Z,51.38
2018-04-28T12:22:12.618Z,52.06
2018-04-28T12:24:40.887Z,52.69
2018-04-28T12:27:09.132Z,52.39
2018-04-28T12:29:37.386Z,52.09
2018-04-28T12:32:06.408Z,51.44
2018-04-28T12:34:34.660Z,52.05
2018-04-28T12:37:02.919Z,52.57
2018-04-28T12:39:31.934Z,53.50
2018-04-28T12:42:00.191Z,52.07
2018-04-28T12:44:29.213Z,52.79
2018-04-28T12:46:57.469Z,51.96
2018-04-28T12:49:25.728Z,52.12
2018-04-28T12:51:53.976Z,51.48
2018-04-28T12:54:22.221Z,52.10
2018-04-28T12:56:50.487Z,51.43
2018-04-28T12:59:18.729Z,48.53
2018-04-28T13:01:47.870Z,49.06
2018-04-28T13:04:16.114Z,49.78
2018-04-28T13:06:45.134Z,49.62
2018-04-28T13:09:13.385Z,49.62
2018-04-28T13:11:41.649Z,46.46
2018-04-28T13:14:10.674Z,46.44
2018-04-28T13:16:38.925Z,46.54
2018-04-28T13:19:07.954Z,45.94
2018-04-28T13:21:36.209Z,45.69
2018-04-28T13:24:04.470Z,46.16
2018-04-28T13:26:33.485Z,46.76
2018-04-28T13:29:01.734Z,46.27
2018-04-28T13:31:30.754Z,45.93
2018-04-28T13:33:59.012Z,46.07
2018-04-28T13:36:27.262Z,46.30
2018-04-28T13:38:55.522Z,44.18
2018-04-28T13:41:24.229Z,43.45
2018-04-28T13:43:52.495Z,44.31
2018-04-28T13:46:20.756Z,44.20
2018-04-28T13:48:49.014Z,45.84
2018-04-28T13:51:17.265Z,40.77
2018-04-28T13:53:45.528Z,42.27
2018-04-28T13:56:13.782Z,43.20
2018-04-28T13:58:42.037Z,41.38
2018-04-28T14:01:10.288Z,40.08
2018-04-28T14:03:38.545Z,39.45
2018-04-28T14:06:06.811Z,40.59
2018-04-28T14:08:35.065Z,39.93
2018-04-28T14:11:03.368Z,38.47
2018-04-28T14:13:31.578Z,40.17
2018-04-28T14:15:59.840Z,37.81
2018-04-28T14:18:28.137Z,36.21
2018-04-28T14:20:56.350Z,37.08
2018-04-28T14:23:25.358Z,36.83
2018-04-28T14:25:53.612Z,36.25
2018-04-28T14:28:22.633Z,35.06
2018-04-28T14:30:50.890Z,34.56
2018-04-28T14:33:19.896Z,32.89
2018-04-28T14:35:48.161Z,30.92
2018-04-28T14:38:16.413Z,31.33
2018-04-28T14:40:44.695Z,27.77
2018-04-28T14:43:12.937Z,31.63
2018-04-28T14:45:41.196Z,31.83
2018-04-28T14:48:09.444Z,32.82
2018-04-28T14:50:37.702Z,31.42
2018-04-28T14:53:06.710Z,31.30
2018-04-28T14:55:34.973Z,30.00
2018-04-28T14:58:03.990Z,30.28
2018-04-28T15:00:32.246Z,31.65
2018-04-28T15:03:01.266Z,29.68
2018-04-28T15:05:29.530Z,30.84
2018-04-28T15:07:57.777Z,31.90
2018-04-28T15:10:26.792Z,32.76
2018-04-28T15:12:55.049Z,34.36
2018-04-28T15:15:23.289Z,35.54
2018-04-28T15:17:51.549Z,38.59
2018-04-28T15:20:19.807Z,38.33
2018-04-28T15:22:48.137Z,35.36
2018-04-28T15:25:17.080Z,33.22
2018-04-28T15:27:45.329Z,32.97
2018-04-28T15:30:14.345Z,33.10
2018-04-28T15:32:42.606Z,33.76
2018-04-28T15:35:10.853Z,35.06
2018-04-28T15:37:39.119Z,36.87
2018-04-28T15:40:07.369Z,34.68
2018-04-28T15:42:35.625Z,34.65
2018-04-28T15:45:03.874Z,35.50
2018-04-28T15:47:32.126Z,36.78
2018-04-28T15:50:00.456Z,38.18
2018-04-28T15:52:28.641Z,36.65
2018-04-28T15:54:56.890Z,34.50
2018-04-28T15:57:25.149Z,36.35
2018-04-28T15:59:54.171Z,38.57
2018-04-28T16:02:22.414Z,36.61
2018-04-28T16:04:51.439Z,37.19
2018-04-28T16:07:19.685Z,35.09
2018-04-28T16:09:47.943Z,35.01
2018-04-28T16:12:16.189Z,34.72
2018-04-28T16:14:44.448Z,36.31
2018-04-28T16:17:12.700Z,34.79
2018-04-28T16:19:40.952Z,36.40
2018-04-28T16:22:09.216Z,36.38
2018-04-28T16:24:37.480Z,36.18
2018-04-28T16:27:05.736Z,37.47
2018-04-28T16:29:33.996Z,38.35
2018-04-28T16:32:02.254Z,39.43
2018-04-28T16:34:30.518Z,39.67
2018-04-28T16:36:58.770Z,40.07
2018-04-28T16:39:27.026Z,39.34
2018-04-28T16:41:55.269Z,40.26
2018-04-28T16:44:23.525Z,40.49
2018-04-28T16:46:51.919Z,40.51
2018-04-28T16:49:20.170Z,40.52
2018-04-28T16:51:49.382Z,40.63
2018-04-28T16:54:17.633Z,40.65
2018-04-28T16:56:46.661Z,41.63
2018-04-28T16:59:14.909Z,41.74
2018-04-28T17:01:43.929Z,40.46
2018-04-28T17:04:12.188Z,40.46
2018-04-28T17:06:40.440Z,41.94
2018-04-28T17:09:08.685Z,41.76
2018-04-28T17:11:36.953Z,42.17
2018-04-28T17:14:05.201Z,41.49
2018-04-28T17:16:33.462Z,43.59
2018-04-28T17:19:02.481Z,43.82
2018-04-28T17:21:30.733Z,44.45
2018-04-28T17:23:58.980Z,45.49
2018-04-28T17:26:27.237Z,45.66
2018-04-28T17:28:55.487Z,47.44
2018-04-28T17:31:23.741Z,46.89
2018-04-28T17:33:51.989Z,46.61
2018-04-28T17:36:20.277Z,47.19
2018-04-28T17:38:49.284Z,48.14
2018-04-28T17:41:17.534Z,47.71
2018-04-28T17:43:45.804Z,48.34
2018-04-28T17:46:14.055Z,48.38
2018-04-28T17:48:42.307Z,48.24
2018-04-28T17:51:10.552Z,49.01
2018-04-28T17:53:39.573Z,48.62
2018-04-28T17:56:07.812Z,49.74
2018-04-28T17:58:36.833Z,49.34
2018-04-28T18:01:05.142Z,48.93
2018-04-28T18:03:33.400Z,49.39
2018-04-28T18:06:01.647Z,49.30
2018-04-28T18:08:29.906Z,51.82
2018-04-28T18:10:58.920Z,51.81
2018-04-28T18:13:27.172Z,51.97
2018-04-28T18:15:56.185Z,51.19
2018-04-28T18:18:24.441Z,51.75
2018-04-28T18:20:53.786Z,53.02
2018-04-28T18:23:22.044Z,52.96
2018-04-28T18:25:50.298Z,52.34
2018-04-28T18:28:19.331Z,52.84
2018-04-28T18:30:47.573Z,53.38
2018-04-28T18:33:16.594Z,53.45
2018-04-28T18:35:44.922Z,54.10
2018-04-28T18:38:13.128Z,54.72
2018-04-28T18:40:41.381Z,55.84
2018-04-28T18:43:09.692Z,55.48
2018-04-28T18:45:37.952Z,54.73
2018-04-28T18:48:06.210Z,55.03
2018-04-28T18:50:34.461Z,55.12
2018-04-28T18:53:02.745Z,55.39
2018-04-28T18:55:31.008Z,55.40
2018-04-28T18:57:59.268Z,55.64
2018-04-28T19:00:28.361Z,55.01
2018-04-28T19:02:57.367Z,54.27
2018-04-28T19:05:25.622Z,54.43
2018-04-28T19:07:53.869Z,54.80
2018-04-28T19:10:22.143Z,54.35
2018-04-28T19:12:50.396Z,54.34
2018-04-28T19:15:18.649Z,54.80
2018-04-28T19:17:46.929Z,54.68
2018-04-28T19:20:15.979Z,54.81
2018-04-28T19:22:44.221Z,54.78
2018-04-28T19:25:12.489Z,55.66
2018-04-28T19:27:40.773Z,56.06
2018-04-28T19:30:09.029Z,56.70
2018-04-28T19:32:37.288Z,57.33
2018-04-28T19:35:05.561Z,57.50
2018-04-28T19:37:33.810Z,57.45
2018-04-28T19:40:02.100Z,57.39
2018-04-28T19:42:30.381Z,58.05
2018-04-28T19:44:58.641Z,58.05
2018-04-28T19:47:26.908Z,58.36
2018-04-28T19:49:55.201Z,58.85
2018-04-28T19:52:23.460Z,59.87
2018-04-28T19:54:51.716Z,60.27
2018-04-28T19:57:19.972Z,60.47
2018-04-28T19:59:48.225Z,60.83
2018-04-28T20:02:16.478Z,61.13
2018-04-28T20:04:44.726Z,61.15
2018-04-28T20:07:12.994Z,61.66
2018-04-28T20:09:42.013Z,61.62
2018-04-28T20:12:10.271Z,62.03
2018-04-28T20:14:38.517Z,61.87
2018-04-28T20:17:06.776Z,61.52
2018-04-28T20:19:35.041Z,61.90
2018-04-28T20:22:20.899Z,62.08
2018-04-28T20:25:06.838Z,62.19
2018-04-28T20:27:35.094Z,62.29
2018-04-28T20:30:03.359Z,61.60
2018-04-28T20:32:31.608Z,61.23
2018-04-28T20:34:59.869Z,61.73
2018-04-28T20:37:28.896Z,61.59
2018-04-28T20:39:57.150Z,62.23
2018-04-28T20:42:25.405Z,62.30
2018-04-28T20:44:54.421Z,62.44
2018-04-28T20:47:22.685Z,62.57
2018-04-28T20:49:51.704Z,62.28
2018-04-28T20:52:19.960Z,61.25
2018-04-28T20:54:48.221Z,59.62
2018-04-28T20:57:16.483Z,56.67
2018-04-28T20:59:44.742Z,56.45
2018-04-28T21:02:12.996Z,57.13
2018-04-28T21:04:41.258Z,57.36
2018-04-28T21:07:09.508Z,56.37
2018-04-28T21:09:37.789Z,54.18
2018-04-28T21:12:06.066Z,55.16
2018-04-28T21:14:34.312Z,55.47
2018-04-28T21:17:03.328Z,56.26
2018-04-28T21:19:31.594Z,56.15
2018-04-28T21:22:00.614Z,56.44
2018-04-28T21:24:28.911Z,54.81
2018-04-28T21:26:57.170Z,55.03
2018-04-28T21:29:25.442Z,54.75
2018-04-28T21:31:53.685Z,54.24
2018-04-28T21:34:22.704Z,54.48
2018-04-28T21:36:50.990Z,55.51
2018-04-28T21:39:19.247Z,56.00
2018-04-28T21:41:47.501Z,55.96
2018-04-28T21:44:16.521Z,54.64
2018-04-28T21:46:44.776Z,53.88
2018-04-28T21:49:13.048Z,53.66
2018-04-28T21:51:41.292Z,53.96
2018-04-28T21:54:09.553Z,53.51
2018-04-28T21:56:37.810Z,52.47
2018-04-28T21:59:06.071Z,52.50
2018-04-28T22:01:34.326Z,52.52
2018-04-28T22:04:03.357Z,52.84
2018-04-28T22:06:31.612Z,52.81
2018-04-28T22:08:59.893Z,52.59
2018-04-28T22:11:28.148Z,52.41
2018-04-28T22:13:57.175Z,52.07
2018-04-28T22:16:25.553Z,51.69
2018-04-28T22:18:53.810Z,51.83
2018-04-28T22:21:22.825Z,52.08
2018-04-28T22:23:51.079Z,51.90
2018-04-28T22:26:19.340Z,51.66
2018-04-28T22:28:48.365Z,52.13
2018-04-28T22:31:16.624Z,51.42
2018-04-28T22:33:44.876Z,51.24
2018-04-28T22:36:13.907Z,51.76
2018-04-28T22:38:42.158Z,52.41
2018-04-28T22:41:11.188Z,52.51
2018-04-28T22:43:39.437Z,52.37
2018-04-28T22:46:07.698Z,52.26
2018-04-28T22:48:36.835Z,52.14
2018-04-28T22:51:05.090Z,52.15
2018-04-28T22:53:33.345Z,52.34
2018-04-28T22:56:02.373Z,52.82
2018-04-28T22:58:30.629Z,52.47
2018-04-28T23:00:58.891Z,53.07
2018-04-28T23:03:27.904Z,52.90
2018-04-28T23:05:56.178Z,54.33
2018-04-28T23:08:24.428Z,54.28
2018-04-28T23:10:53.481Z,54.64
2018-04-28T23:13:22.501Z,54.81
2018-04-28T23:15:50.756Z,55.50
2018-04-28T23:18:19.014Z,55.62
2018-04-28T23:20:47.274Z,56.01
2018-04-28T23:23:15.533Z,56.72
2018-04-28T23:25:43.790Z,57.99
2018-04-28T23:28:12.110Z,60.50
2018-04-28T23:30:40.375Z,66.75
2018-04-28T23:33:08.629Z,70.31
2018-04-28T23:35:37.654Z,70.27
2018-04-28T23:38:05.927Z,76.70
2018-04-28T23:40:34.165Z,72.01
2018-04-28T23:43:02.432Z,79.51
2018-04-28T23:45:30.684Z,78.86
2018-04-28T23:47:59.705Z,81.28
2018-04-28T23:50:28.727Z,83.67
2018-04-28T23:52:56.994Z,83.39
2018-04-28T23:55:25.252Z,85.12
2018-04-28T23:57:53.513Z,84.75
